Time;durP1;ratioP1;P1;durP2;ratioP2;P2;SDS_P1;SDS_P2;PMS_P1;PMS_P2;Temp;Humidity;BMP_temperature;BMP_pressure;BME280_temperature;BME280_humidity;BME280_pressure;Samples;Min_cycle;Max_cycle;Signal;HPM_P1;HPM_P2
2021/12/16 00:01:59;;;;;;;8.35;3.63;;;;;;;3.72;100.00;100254.28;5036575;28;20072;-63
2021/12/16 00:07:55;;;;;;;8.95;4.25;;;;;;;3.65;100.00;100250.94;5036085;28;20056;-62
2021/12/16 00:10:51;;;;;;;8.70;4.10;;;;;;;3.59;100.00;100254.44;5036160;28;20151;-62
2021/12/16 00:32:04;;;;;;;10.65;5.10;;;;;;;3.85;100.00;100254.94;5035846;28;20512;-63
2021/12/16 00:34:50;;;;;;;9.52;4.70;;;;;;;3.88;100.00;100252.28;5035744;28;20052;-62
2021/12/16 00:37:36;;;;;;;8.80;4.47;;;;;;;3.89;100.00;100259.16;5034630;28;20124;-61
2021/12/16 00:40:22;;;;;;;7.75;3.80;;;;;;;4.05;100.00;100259.75;5034425;28;20056;-61
2021/12/16 00:43:22;;;;;;;7.88;4.07;;;;;;;4.09;100.00;100252.78;5034736;28;20076;-62
2021/12/16 00:49:17;;;;;;;9.95;3.80;;;;;;;4.09;99.37;100258.84;5035405;28;20503;-63
2021/12/16 00:58:44;;;;;;;6.78;3.60;;;;;;;4.26;99.55;100268.06;5018878;28;20153;-62
2021/12/16 01:51:25;;;;;;;6.13;3.05;;;;;;;4.44;95.76;100244.34;5033001;28;20056;-62
2021/12/16 01:57:32;;;;;;;7.25;3.45;;;;;;;4.38;93.89;100247.06;5025429;28;20053;-62
2021/12/16 02:00:25;;;;;;;8.50;4.13;;;;;;;4.49;93.68;100235.63;5047170;28;20040;-62
2021/12/16 02:03:12;;;;;;;8.85;4.80;;;;;;;4.40;94.37;100244.44;5033460;28;20056;-62
2021/12/16 02:06:09;;;;;;;8.98;4.20;;;;;;;4.39;94.57;100221.97;5034275;28;20052;-62
2021/12/16 02:08:55;;;;;;;8.43;3.90;;;;;;;4.34;93.81;100221.22;5034264;28;20056;-62
2021/12/16 02:12:06;;;;;;;10.27;4.28;;;;;;;4.23;93.90;100219.66;5026767;28;20404;-61
2021/12/16 02:27:49;;;;;;;9.38;4.47;;;;;;;4.28;93.91;100233.41;5033811;28;20050;-62
2021/12/16 02:36:45;;;;;;;12.75;4.93;;;;;;;4.29;95.58;100218.69;5032427;28;20052;-62
2021/12/16 02:39:33;;;;;;;9.20;4.55;;;;;;;4.33;96.41;100212.56;5024249;28;20053;-62
2021/12/16 02:42:32;;;;;;;10.25;4.72;;;;;;;4.31;95.07;100215.19;5032430;28;20072;-61
2021/12/16 02:48:30;;;;;;;9.82;4.65;;;;;;;4.10;94.80;100182.72;5032254;28;20060;-62
2021/12/16 02:51:24;;;;;;;9.27;4.35;;;;;;;4.16;95.63;100198.16;5045941;28;20068;-62
2021/12/16 02:54:10;;;;;;;9.18;4.45;;;;;;;4.27;96.19;100210.09;5032417;28;20052;-62
2021/12/16 02:56:57;;;;;;;10.27;4.70;;;;;;;4.32;96.75;100196.13;5033255;28;20436;-62
2021/12/16 02:59:43;;;;;;;9.02;4.30;;;;;;;4.39;94.37;100212.44;5032218;28;20121;-62
2021/12/16 03:02:29;;;;;;;10.52;4.60;;;;;;;4.27;95.64;100194.53;5012515;28;20053;-63
2021/12/16 03:05:15;;;;;;;9.55;4.53;;;;;;;4.18;94.71;100204.19;5012931;28;20065;-63
2021/12/16 03:08:01;;;;;;;8.80;4.63;;;;;;;4.01;95.39;100201.91;5026256;28;20094;-62
2021/12/16 03:14:07;;;;;;;8.68;4.25;;;;;;;4.16;96.02;100208.53;5044428;28;20044;-63
2021/12/16 03:38:08;;;;;;;8.38;4.05;;;;;;;4.13;95.81;100187.00;5031585;28;20049;-62
2021/12/16 03:40:54;;;;;;;10.38;4.30;;;;;;;4.17;95.82;100188.66;5023576;28;20527;-62
2021/12/16 03:43:40;;;;;;;8.02;4.10;;;;;;;4.14;95.83;100181.78;5031323;28;20061;-62
2021/12/16 03:46:33;;;;;;;8.35;4.18;;;;;;;4.26;94.79;100192.81;5031531;28;20397;-62
2021/12/16 03:49:24;;;;;;;7.03;3.47;;;;;;;4.23;95.44;100195.47;5031376;28;20056;-62
2021/12/16 03:52:11;;;;;;;8.85;4.50;;;;;;;4.26;96.75;100177.25;5017480;28;20428;-62
2021/12/16 03:55:01;;;;;;;13.15;4.40;;;;;;;4.19;95.60;100205.88;5012299;28;20061;-62
2021/12/16 03:57:48;;;;;;;8.43;3.83;;;;;;;4.30;94.85;100202.25;5011708;28;20519;-62
2021/12/16 04:00:46;;;;;;;10.10;4.35;;;;;;;4.19;95.17;100192.06;5014592;28;20083;-62
2021/12/16 04:03:33;;;;;;;9.27;3.97;;;;;;;4.23;95.88;100195.47;5031402;28;20052;-62
2021/12/16 04:06:21;;;;;;;7.40;4.13;;;;;;;4.24;95.35;100186.78;5032660;28;20073;-62
2021/12/16 04:09:12;;;;;;;8.38;3.20;;;;;;;4.34;95.71;100193.50;5017085;28;20060;-61
2021/12/16 04:12:09;;;;;;;6.57;4.03;;;;;;;4.37;95.63;100206.44;5023294;28;20064;-62
2021/12/16 04:14:59;;;;;;;8.75;4.05;;;;;;;4.38;94.39;100199.47;5032350;28;20076;-62
2021/12/16 04:17:47;;;;;;;11.00;4.95;;;;;;;4.37;93.75;100196.06;5031322;28;20076;-60
2021/12/16 04:20:34;;;;;;;7.47;3.67;;;;;;;4.19;94.85;100197.25;5031122;28;20057;-63
2021/12/16 04:23:20;;;;;;;7.40;3.92;;;;;;;4.32;96.26;100198.72;5030975;28;20401;-62
2021/12/16 04:26:07;;;;;;;10.35;4.35;;;;;;;4.32;94.49;100193.53;5045898;28;20052;-62
2021/12/16 04:28:53;;;;;;;8.60;4.22;;;;;;;4.24;94.88;100208.41;5041025;28;20064;-62
2021/12/16 04:31:40;;;;;;;8.50;4.10;;;;;;;4.31;95.83;100204.81;5034901;28;20056;-61
2021/12/16 04:34:27;;;;;;;9.15;4.50;;;;;;;3.96;95.77;100193.38;5034885;28;20052;-62
2021/12/16 04:37:14;;;;;;;7.90;3.67;;;;;;;4.07;98.02;100194.03;5048636;28;20401;-62
2021/12/16 04:40:02;;;;;;;9.88;4.47;;;;;;;4.13;95.50;100213.78;5048625;28;20052;-62
2021/12/16 04:42:49;;;;;;;8.68;4.47;;;;;;;4.13;96.02;100203.41;5037909;28;20064;-62
2021/12/16 04:45:36;;;;;;;9.25;4.28;;;;;;;4.13;96.21;100207.75;5034690;28;20404;-62
2021/12/16 04:48:24;;;;;;;8.30;3.88;;;;;;;4.18;96.18;100208.50;5034761;28;20048;-62
2021/12/16 04:51:11;;;;;;;8.02;4.35;;;;;;;4.27;96.15;100218.72;5013612;28;20060;-62
2021/12/16 04:53:58;;;;;;;7.78;4.53;;;;;;;4.15;95.83;100219.81;5026462;28;20112;-62
2021/12/16 04:56:45;;;;;;;8.93;3.95;;;;;;;4.13;96.84;100213.78;5028849;28;20049;-62
2021/12/16 04:59:35;;;;;;;9.50;4.32;;;;;;;4.11;96.30;100215.56;5032753;28;20053;-62
2021/12/16 05:02:24;;;;;;;9.32;4.28;;;;;;;4.03;96.33;100227.81;5030454;28;20049;-62
2021/12/16 05:05:29;;;;;;;8.63;4.45;;;;;;;3.95;97.96;100225.34;5023259;28;20044;-62
2021/12/16 05:08:14;;;;;;;10.48;5.18;;;;;;;3.88;97.26;100223.75;5032365;28;20052;-62
2021/12/16 05:11:16;;;;;;;8.93;4.03;;;;;;;4.10;97.27;100233.75;5044009;28;20060;-61
2021/12/16 05:14:06;;;;;;;7.50;4.50;;;;;;;4.07;97.21;100222.56;5040963;28;20447;-63
2021/12/16 05:16:54;;;;;;;10.80;4.13;;;;;;;4.04;96.47;100220.00;5031125;28;20052;-62
2021/12/16 05:19:48;;;;;;;10.43;4.40;;;;;;;3.97;96.94;100227.91;5018291;28;20053;-64
2021/12/16 05:28:30;;;;;;;11.15;4.47;;;;;;;3.94;97.56;100219.31;5032715;28;20044;-64
2021/12/16 05:31:18;;;;;;;8.43;4.22;;;;;;;4.01;97.16;100229.59;5032569;28;20048;-62
2021/12/16 05:34:08;;;;;;;10.30;4.20;;;;;;;4.07;97.31;100232.94;5031762;28;20048;-63
2021/12/16 05:36:57;;;;;;;7.85;3.95;;;;;;;4.06;97.61;100243.34;5031349;28;20052;-63
2021/12/16 05:39:44;;;;;;;6.57;3.17;;;;;;;4.28;97.35;100241.19;5031446;28;20053;-62
2021/12/16 05:43:08;;;;;;;9.43;4.05;;;;;;;4.16;98.44;100239.66;5031370;28;20052;-62
2021/12/16 05:45:56;;;;;;;9.85;3.92;;;;;;;4.47;100.00;100246.03;5032375;28;20060;-61
2021/12/16 05:48:45;;;;;;;8.35;3.88;;;;;;;4.28;97.58;100238.59;5033233;28;20072;-61
2021/12/16 05:51:35;;;;;;;11.10;3.10;;;;;;;5.72;100.00;100242.44;5031892;28;20052;-62
2021/12/16 05:54:21;;;;;;;7.10;3.38;;;;;;;5.08;98.88;100238.72;5023046;28;20049;-63
2021/12/16 05:57:30;;;;;;;9.00;3.72;;;;;;;4.58;99.49;100244.97;5027278;28;20061;-62
2021/12/16 06:00:28;;;;;;;6.78;3.15;;;;;;;4.39;100.00;100232.34;5031988;28;20056;-62
2021/12/16 06:03:14;;;;;;;7.22;3.50;;;;;;;4.39;98.55;100250.53;5023506;28;20052;-62
2021/12/16 06:06:01;;;;;;;7.10;3.25;;;;;;;4.31;99.49;100245.44;5032131;28;20060;-62
2021/12/16 06:08:49;;;;;;;6.35;3.38;;;;;;;5.06;100.00;100246.53;5032085;28;20052;-62
2021/12/16 06:11:39;;;;;;;6.45;2.85;;;;;;;5.12;100.00;100253.38;5032951;28;20052;-63
2021/12/16 06:29:47;;;;;;;5.55;2.83;;;;;;;4.38;98.65;100256.56;5032559;28;20052;-63
2021/12/16 06:32:33;;;;;;;5.07;2.83;;;;;;;4.31;97.99;100258.44;5032572;28;20048;-63
2021/12/16 06:35:20;;;;;;;4.68;2.65;;;;;;;4.45;98.79;100265.97;5032141;28;20060;-63
2021/12/16 06:38:06;;;;;;;4.85;2.92;;;;;;;4.33;97.50;100272.25;5037161;28;20048;-62
2021/12/16 06:41:05;;;;;;;6.05;2.97;;;;;;;4.19;97.64;100277.69;5018884;28;20048;-63
2021/12/16 06:44:25;;;;;;;5.88;3.20;;;;;;;4.08;99.26;100285.63;4990639;28;20062;-63
2021/12/16 06:47:17;;;;;;;7.78;3.35;;;;;;;3.99;98.83;100283.22;4990561;28;20206;-63
2021/12/16 06:50:05;;;;;;;6.60;2.85;;;;;;;3.99;98.88;100278.03;4976851;28;20049;-63
2021/12/16 06:52:54;;;;;;;5.90;2.63;;;;;;;4.00;99.49;100290.97;4990524;28;20544;-63
2021/12/16 06:55:59;;;;;;;7.53;3.67;;;;;;;4.06;100.00;100295.22;4976829;28;20077;-63
2021/12/16 06:58:52;;;;;;;7.65;3.60;;;;;;;3.92;99.78;100277.28;4990170;28;20134;-63
2021/12/16 07:01:48;;;;;;;6.07;2.60;;;;;;;3.94;100.00;100286.75;4990568;28;20703;-63
2021/12/16 07:04:36;;;;;;;5.10;2.65;;;;;;;4.08;100.00;100280.44;4990471;28;20045;-61
2021/12/16 07:07:22;;;;;;;6.32;2.88;;;;;;;4.00;100.00;100308.28;4990492;28;20623;-63
2021/12/16 07:10:10;;;;;;;7.68;3.65;;;;;;;3.89;100.00;100305.84;4990347;28;20053;-63
2021/12/16 07:13:00;;;;;;;6.82;3.08;;;;;;;3.94;100.00;100306.63;4990257;28;20406;-63
2021/12/16 07:15:48;;;;;;;4.38;2.50;;;;;;;4.16;100.00;100301.09;4990247;28;20053;-64
2021/12/16 07:18:33;;;;;;;6.50;2.97;;;;;;;3.99;100.00;100288.41;4976422;28;20053;-62
2021/12/16 07:21:19;;;;;;;5.70;2.80;;;;;;;4.24;100.00;100294.03;5016545;28;20084;-63
2021/12/16 07:24:07;;;;;;;7.93;2.97;;;;;;;4.27;99.55;100293.97;5032096;28;20048;-63
2021/12/16 07:26:54;;;;;;;4.80;2.65;;;;;;;4.15;100.00;100291.59;5031488;28;20531;-62
2021/12/16 07:29:39;;;;;;;6.55;2.80;;;;;;;4.09;100.00;100295.16;5030072;28;20048;-63
2021/12/16 07:32:25;;;;;;;6.10;2.50;;;;;;;4.04;100.00;100295.25;5030633;28;20052;-64
2021/12/16 07:35:15;;;;;;;6.15;2.30;;;;;;;3.96;100.00;100297.09;5030687;28;20483;-64
2021/12/16 07:38:01;;;;;;;4.32;2.45;;;;;;;4.07;100.00;100289.13;5030240;28;20392;-64
2021/12/16 07:40:50;;;;;;;5.47;3.03;;;;;;;4.46;100.00;100303.16;5018622;28;20049;-66
2021/12/16 07:43:56;;;;;;;4.72;2.67;;;;;;;4.11;100.00;100298.59;5029603;28;20405;-68
2021/12/16 07:46:51;;;;;;;6.63;2.90;;;;;;;4.14;100.00;100301.13;5029532;28;20411;-68
2021/12/16 07:49:40;;;;;;;4.65;2.90;;;;;;;4.18;100.00;100304.50;5028680;28;20809;-68
2021/12/16 07:52:26;;;;;;;5.55;2.60;;;;;;;4.09;100.00;100295.16;5030377;28;20057;-67
2021/12/16 07:55:13;;;;;;;4.45;2.30;;;;;;;4.18;100.00;100309.69;5030861;28;20057;-67
2021/12/16 07:57:59;;;;;;;4.20;2.22;;;;;;;4.19;100.00;100306.22;5031107;28;20072;-68
2021/12/16 08:00:46;;;;;;;4.45;2.45;;;;;;;4.62;100.00;100320.16;5031110;28;20052;-49
2021/12/16 08:03:35;;;;;;;4.25;2.30;;;;;;;5.41;96.65;100312.50;5039843;28;20064;-65
2021/12/16 08:06:24;;;;;;;4.53;2.30;;;;;;;5.09;100.00;100318.38;5039315;28;20483;-69
2021/12/16 08:09:10;;;;;;;4.95;2.70;;;;;;;4.38;100.00;100324.06;5040190;28;20064;-67
2021/12/16 08:11:57;;;;;;;6.00;2.83;;;;;;;4.06;100.00;100326.34;5034021;28;20076;-66
2021/12/16 08:14:44;;;;;;;5.53;2.20;;;;;;;3.98;100.00;100335.97;5040692;28;20130;-66
2021/12/16 08:17:30;;;;;;;5.80;2.65;;;;;;;3.98;100.00;100336.84;5040339;28;20044;-66
2021/12/16 08:20:18;;;;;;;6.55;2.55;;;;;;;4.09;100.00;100320.22;5041869;28;20048;-66
2021/12/16 08:23:04;;;;;;;4.45;2.42;;;;;;;3.97;100.00;100326.47;5040584;28;20539;-64
2021/12/16 08:25:50;;;;;;;12.48;6.00;;;;;;;4.29;100.00;100335.47;5026899;28;20056;-60
2021/12/16 08:28:36;;;;;;;7.97;3.53;;;;;;;6.02;100.00;100334.47;5040596;28;20048;-67
2021/12/16 08:31:22;;;;;;;6.40;3.28;;;;;;;6.48;100.00;100342.03;5034754;28;20428;-59
2021/12/16 08:34:10;;;;;;;4.18;2.47;;;;;;;6.08;100.00;100335.25;5035927;28;20049;-58
2021/12/16 08:36:55;;;;;;;8.35;2.47;;;;;;;5.90;100.00;100345.19;5035490;28;20049;-57
2021/12/16 08:39:43;;;;;;;6.85;3.03;;;;;;;6.76;100.00;100348.25;5040510;28;20056;-57
2021/12/16 08:42:29;;;;;;;6.20;2.35;;;;;;;6.18;99.03;100347.16;5020618;28;20060;-58
2021/12/16 08:45:20;;;;;;;6.47;2.70;;;;;;;5.77;100.00;100332.47;5020536;28;20511;-58
2021/12/16 08:48:07;;;;;;;8.57;2.67;;;;;;;6.52;100.00;100348.03;5034261;28;20048;-58
2021/12/16 08:50:53;;;;;;;8.23;2.38;;;;;;;6.99;96.10;100346.75;5035362;28;20057;-57
2021/12/16 08:53:39;;;;;;;7.70;2.13;;;;;;;7.22;98.73;100340.91;5026460;28;20072;-58
2021/12/16 08:56:27;;;;;;;5.57;3.33;;;;;;;6.56;92.01;100339.22;5020503;28;20484;-61
2021/12/16 08:59:13;;;;;;;2.65;1.38;;;;;;;6.56;100.00;100330.59;5035321;28;20056;-60
2021/12/16 09:02:01;;;;;;;7.45;2.95;;;;;;;7.01;96.49;100342.38;5035158;28;20412;-61
2021/12/16 09:04:49;;;;;;;5.10;1.80;;;;;;;9.83;87.73;100344.19;5035276;28;20044;-61
2021/12/16 09:07:35;;;;;;;5.55;3.08;;;;;;;7.98;80.87;100340.31;5034594;28;20072;-61
2021/12/16 09:10:28;;;;;;;3.75;1.20;;;;;;;9.39;88.01;100348.50;5033849;28;20053;-58
2021/12/16 09:13:17;;;;;;;2.33;1.05;;;;;;;10.22;95.21;100334.75;5034274;28;20064;-61
2021/12/16 09:16:07;;;;;;;4.25;2.63;;;;;;;10.05;86.81;100338.97;5034962;28;20368;-59
2021/12/16 09:18:55;;;;;;;4.80;2.00;;;;;;;9.04;93.18;100337.63;5035347;28;20072;-61
2021/12/16 09:21:43;;;;;;;2.47;0.73;;;;;;;9.80;95.87;100341.69;5034291;28;20049;-62
2021/12/16 09:24:30;;;;;;;2.13;1.23;;;;;;;11.50;83.58;100330.94;5014608;28;20060;-60
2021/12/16 09:27:16;;;;;;;1.58;0.90;;;;;;;10.01;91.01;100329.50;5015678;28;20057;-59
2021/12/16 09:30:06;;;;;;;4.40;2.28;;;;;;;9.94;79.57;100323.66;5014496;28;20057;-60
2021/12/16 09:33:14;;;;;;;5.75;3.10;;;;;;;8.65;86.94;100315.50;5024277;28;20060;-61
2021/12/16 09:36:02;;;;;;;6.72;1.73;;;;;;;9.18;100.00;100310.94;5034123;28;20416;-61
2021/12/16 09:38:49;;;;;;;4.57;2.03;;;;;;;8.36;98.62;100311.22;5034777;28;20068;-61
2021/12/16 09:41:35;;;;;;;6.28;2.75;;;;;;;7.92;92.95;100297.88;5034750;28;20069;-60
2021/12/16 09:44:22;;;;;;;4.63;1.30;;;;;;;8.25;100.00;100302.91;5033953;28;20408;-59
2021/12/16 09:47:11;;;;;;;4.63;1.52;;;;;;;8.87;90.43;100302.50;5033651;28;20049;-59
2021/12/16 09:49:59;;;;;;;2.58;1.38;;;;;;;9.59;85.38;100305.88;5025897;28;20044;-63
2021/12/16 09:52:45;;;;;;;5.80;1.85;;;;;;;9.41;99.85;100291.75;5034374;28;20064;-61
2021/12/16 09:55:34;;;;;;;7.18;2.15;;;;;;;8.10;95.95;100289.47;5034494;28;20060;-61
2021/12/16 09:58:19;;;;;;;5.00;3.25;;;;;;;6.95;88.81;100296.50;5034430;28;20092;-61
2021/12/16 10:01:09;;;;;;;6.25;3.33;;;;;;;6.64;94.48;100303.41;5040250;28;20068;-61
2021/12/16 10:04:02;;;;;;;5.75;2.35;;;;;;;7.17;99.63;100290.66;5034160;28;20400;-59
2021/12/16 10:06:51;;;;;;;7.30;2.97;;;;;;;7.56;97.08;100294.69;5025602;28;20048;-59
2021/12/16 10:09:38;;;;;;;7.13;3.03;;;;;;;7.97;88.54;100294.25;5034956;28;20056;-60
2021/12/16 10:12:31;;;;;;;4.68;1.88;;;;;;;8.33;93.10;100297.41;5038976;28;20068;-60
2021/12/16 10:18:21;;;;;;;5.63;3.08;;;;;;;7.10;88.54;100294.34;5033112;28;20121;-59
2021/12/16 10:21:08;;;;;;;3.60;2.08;;;;;;;7.19;97.27;100299.28;5033891;28;20142;-60
2021/12/16 10:23:54;;;;;;;3.10;2.08;;;;;;;7.71;93.38;100295.94;5024128;28;20056;-60
2021/12/16 10:26:40;;;;;;;6.13;2.97;;;;;;;7.08;90.85;100293.53;5024560;28;20450;-59
2021/12/16 10:30:01;;;;;;;3.30;1.83;;;;;;;6.71;89.75;100293.69;5032532;28;20048;-58
2021/12/16 10:32:49;;;;;;;4.78;2.53;;;;;;;6.07;93.96;100289.31;5031799;28;20053;-58
2021/12/16 10:35:37;;;;;;;3.65;1.90;;;;;;;6.12;97.67;100290.06;5034155;28;20060;-58
2021/12/16 10:38:25;;;;;;;3.80;2.53;;;;;;;6.07;95.95;100277.16;5033657;28;20068;-61
2021/12/16 10:41:17;;;;;;;3.65;2.30;;;;;;;6.09;94.62;100282.34;5033519;28;20060;-60
2021/12/16 10:47:33;;;;;;;4.40;2.75;;;;;;;5.74;96.30;100283.16;5039485;28;20056;-58
2021/12/16 10:50:20;;;;;;;5.43;2.42;;;;;;;6.01;96.62;100292.88;5033675;28;20120;-59
2021/12/16 10:53:06;;;;;;;4.82;2.35;;;;;;;5.55;97.08;100280.97;5033453;28;20503;-59
2021/12/16 10:56:00;;;;;;;3.78;2.25;;;;;;;6.55;93.78;100280.25;5038425;28;20511;-59
2021/12/16 10:58:46;;;;;;;4.20;2.28;;;;;;;5.65;93.51;100285.94;5051401;28;20052;-62
2021/12/16 11:01:53;;;;;;;43.17;13.07;;;;;;;5.67;99.46;100277.22;5032497;28;20523;-61
2021/12/16 11:04:41;;;;;;;16.40;6.60;;;;;;;5.63;98.56;100272.16;5032209;28;20057;-62
2021/12/16 11:07:56;;;;;;;9.63;3.70;;;;;;;5.65;96.68;100272.94;5033811;28;20052;-60
2021/12/16 11:10:50;;;;;;;7.82;3.35;;;;;;;5.24;97.23;100258.28;5018986;28;20523;-63
2021/12/16 11:13:40;;;;;;;4.15;2.47;;;;;;;5.01;97.51;100264.00;5017488;28;20612;-59
2021/12/16 11:16:35;;;;;;;5.65;2.65;;;;;;;5.18;98.29;100250.63;5030841;28;20053;-59
2021/12/16 11:19:58;;;;;;;8.20;3.63;;;;;;;5.26;98.66;100266.03;5016809;28;20049;-60
2021/12/16 11:22:45;;;;;;;4.25;2.22;;;;;;;5.26;97.79;100269.50;4991582;28;20154;-60
2021/12/16 11:25:37;;;;;;;7.18;2.50;;;;;;;5.43;96.18;100268.25;4991756;28;20057;-62
2021/12/16 11:28:35;;;;;;;4.70;2.35;;;;;;;5.34;97.35;100258.94;4977617;28;20186;-60
2021/12/16 11:31:25;;;;;;;3.20;1.85;;;;;;;4.96;97.36;100268.44;4978193;28;20061;-61
2021/12/16 11:34:11;;;;;;;4.45;2.25;;;;;;;5.10;98.07;100255.13;4968724;28;20151;-60
2021/12/16 11:36:57;;;;;;;7.78;2.83;;;;;;;5.32;100.00;100258.09;4990936;28;20073;-60
2021/12/16 11:39:44;;;;;;;4.03;1.98;;;;;;;5.16;97.19;100258.44;4983895;28;20049;-58
2021/12/16 11:42:31;;;;;;;3.08;1.85;;;;;;;5.05;98.36;100253.50;4981975;28;20061;-62
2021/12/16 11:45:31;;;;;;;3.90;2.17;;;;;;;5.23;96.54;100259.19;4973049;28;20053;-60
2021/12/16 11:48:29;;;;;;;9.93;2.60;;;;;;;5.38;96.91;100246.72;4965524;28;20058;-59
2021/12/16 11:51:33;;;;;;;4.15;2.08;;;;;;;5.43;94.72;100257.88;4981464;28;20458;-59
2021/12/16 11:54:42;;;;;;;4.05;2.22;;;;;;;5.08;95.70;100254.31;4975852;28;20058;-60
2021/12/16 11:57:35;;;;;;;6.40;2.15;;;;;;;5.24;96.42;100255.69;4975601;28;20053;-58
2021/12/16 12:00:29;;;;;;;3.45;2.10;;;;;;;4.92;95.10;100249.44;5016693;28;20052;-60
2021/12/16 12:03:15;;;;;;;3.63;2.05;;;;;;;4.97;97.49;100251.94;5015683;28;20049;-58
2021/12/16 12:06:01;;;;;;;5.57;2.50;;;;;;;5.13;96.32;100261.13;5016515;28;20057;-61
2021/12/16 12:08:50;;;;;;;4.75;2.00;;;;;;;5.37;96.77;100253.66;5021761;28;20048;-63
2021/12/16 12:11:40;;;;;;;3.72;2.08;;;;;;;5.35;94.34;100262.38;5015434;28;20053;-60
2021/12/16 12:14:33;;;;;;;5.55;2.10;;;;;;;5.14;94.36;100254.19;5016856;28;20060;-63
2021/12/16 12:17:21;;;;;;;3.00;1.80;;;;;;;5.16;96.33;100258.44;5002067;28;20057;-60
2021/12/16 12:20:08;;;;;;;5.22;1.98;;;;;;;5.39;98.39;100253.63;5024454;28;20064;-60
2021/12/16 12:22:55;;;;;;;5.00;2.20;;;;;;;5.58;94.61;100248.00;5040748;28;20048;-60
2021/12/16 12:25:40;;;;;;;4.18;1.92;;;;;;;5.57;95.45;100257.53;5036022;28;20048;-60
2021/12/16 12:28:28;;;;;;;4.38;1.92;;;;;;;5.33;94.77;100259.81;5036313;28;20072;-60
2021/12/16 12:31:17;;;;;;;3.75;2.25;;;;;;;5.21;94.75;100239.28;5021086;28;20065;-61
2021/12/16 12:34:03;;;;;;;4.65;2.40;;;;;;;5.54;93.57;100239.41;5036049;28;20520;-60
2021/12/16 12:36:52;;;;;;;4.47;2.40;;;;;;;5.78;93.32;100253.56;5041024;28;20053;-61
2021/12/16 12:39:45;;;;;;;2.80;1.98;;;;;;;5.67;92.61;100253.81;5034955;28;20060;-60
2021/12/16 12:42:31;;;;;;;4.13;2.00;;;;;;;5.53;93.44;100243.75;5021973;28;20064;-60
2021/12/16 12:45:25;;;;;;;3.25;1.98;;;;;;;5.47;94.98;100256.06;5035753;28;20376;-58
2021/12/16 12:48:15;;;;;;;4.40;1.98;;;;;;;5.60;93.95;100262.66;5040557;28;20057;-60
2021/12/16 12:51:01;;;;;;;4.32;2.15;;;;;;;5.50;93.60;100245.59;5035898;28;20060;-59
2021/12/16 12:53:51;;;;;;;3.47;2.10;;;;;;;5.89;99.26;100253.28;5035455;28;20052;-59
2021/12/16 12:56:38;;;;;;;3.92;2.25;;;;;;;5.43;92.73;100260.47;5035650;28;20048;-60
2021/12/16 12:59:38;;;;;;;3.03;1.70;;;;;;;5.63;93.65;100257.38;5040477;28;20065;-61
2021/12/16 13:02:29;;;;;;;4.28;2.60;;;;;;;5.43;93.67;100250.91;5026515;28;20056;-58
2021/12/16 13:05:21;;;;;;;4.10;2.47;;;;;;;5.43;94.88;100244.88;5035065;28;20053;-59
2021/12/16 13:08:08;;;;;;;;;;;;;;;5.50;94.37;100251.63;5036055;28;20053;-59
2021/12/16 13:11:08;;;;;;;4.88;2.30;;;;;;;5.23;94.23;100222.81;5033973;28;19913;-60
2021/12/16 13:14:15;;;;;;;4.88;2.30;;;;;;;5.21;93.59;100245.34;5035627;28;20064;-61
2021/12/16 13:26:33;;;;;;;3.67;2.10;;;;;;;5.03;95.82;100244.88;5033669;28;20052;-65
2021/12/16 13:30:03;;;;;;;3.80;2.40;;;;;;;4.82;96.58;100259.19;5039905;28;20053;-62
2021/12/16 13:32:39;;;;;;;4.85;2.53;;;;;;;4.81;97.08;100260.91;5040800;28;20187;-67
2021/12/16 13:35:33;;;;;;;5.25;2.78;;;;;;;4.73;97.72;100252.44;5034926;28;20056;-65
2021/12/16 13:38:21;;;;;;;3.60;2.30;;;;;;;4.68;99.26;100260.31;5019732;28;20056;-66
2021/12/16 13:41:16;;;;;;;6.85;2.85;;;;;;;4.57;100.00;100259.66;5014972;28;20048;-64
2021/12/16 13:44:15;;;;;;;6.22;2.90;;;;;;;4.55;100.00;100262.28;5014684;28;20061;-68
2021/12/16 13:47:10;;;;;;;5.85;3.10;;;;;;;4.58;100.00;100268.31;5033975;28;20065;-65
2021/12/16 14:06:58;;;;;;;10.98;4.25;;;;;;;4.84;100.00;100278.19;5000857;28;20056;-66
2021/12/16 14:10:18;;;;;;;8.82;4.10;;;;;;;4.89;100.00;100285.88;5012478;28;20497;-64
2021/12/16 14:23:04;;;;;;;12.07;5.15;;;;;;;4.91;100.00;100278.91;5033094;28;20135;-65
2021/12/16 14:38:25;;;;;;;11.85;5.22;;;;;;;4.77;100.00;100250.63;5031607;28;20056;-65
2021/12/16 14:41:42;;;;;;;10.77;4.72;;;;;;;4.76;100.00;100254.13;5032430;28;20068;-64
2021/12/16 14:50:05;;;;;;;10.20;5.60;;;;;;;4.68;100.00;100249.09;5012984;28;20050;-64
2021/12/16 14:52:51;;;;;;;11.98;5.70;;;;;;;4.64;100.00;100247.41;5026724;28;20049;-67
2021/12/16 14:55:38;;;;;;;15.98;6.53;;;;;;;4.71;100.00;100263.72;5013795;28;20072;-64
2021/12/16 14:58:25;;;;;;;13.15;6.72;;;;;;;4.67;100.00;100265.53;5012782;28;20061;-64
2021/12/16 15:01:19;;;;;;;15.10;6.28;;;;;;;4.70;100.00;100267.22;5013713;28;20076;-64
2021/12/16 15:04:13;;;;;;;13.25;7.13;;;;;;;4.58;100.00;100274.38;5040392;28;20056;-64
2021/12/16 15:07:06;;;;;;;17.13;7.05;;;;;;;4.32;100.00;100271.38;5004541;28;20057;-65
2021/12/16 15:09:54;;;;;;;13.80;7.07;;;;;;;4.19;100.00;100269.91;5018281;28;20401;-67
2021/12/16 15:12:49;;;;;;;17.50;7.30;;;;;;;4.02;100.00;100265.88;5013413;28;20405;-65
2021/12/16 15:15:51;;;;;;;15.88;7.18;;;;;;;3.87;100.00;100266.97;5013445;28;20064;-63
2021/12/16 15:43:16;;;;;;;;;;;;;;;3.75;100.00;100285.34;5014402;28;19922;-64
2021/12/16 15:46:04;;;;;;;;;;;;;;;3.73;100.00;100298.31;5040870;28;19917;-66
2021/12/16 15:48:52;;;;;;;;;;;;;;;3.74;100.00;100302.63;5026335;28;19917;-66
2021/12/16 15:51:37;;;;;;;;;;;;;;;3.84;100.00;100311.09;5013639;28;19917;-65
2021/12/16 15:54:22;;;;;;;;;;;;;;;3.75;100.00;100293.97;5013513;28;19917;-65
2021/12/16 15:57:08;;;;;;;;;;;;;;;3.76;100.00;100318.16;5026611;28;20285;-65
2021/12/16 16:00:06;;;;;;;;;;;;;;;3.71;100.00;100326.00;5013458;28;19917;-65
2021/12/16 16:02:55;;;;;;;;;;;;;;;3.74;100.00;100310.41;5013497;28;20348;-65
2021/12/16 16:05:44;;;;;;;;;;;;;;;3.64;100.00;100321.81;5013704;28;20021;-65
2021/12/16 16:08:31;;;;;;;;;;;;;;;3.72;100.00;100304.38;5013742;28;19917;-65
2021/12/16 16:11:19;;;;;;;;;;;;;;;3.71;100.00;100307.84;5013166;28;19917;-48
2021/12/16 16:14:07;;;;;;;;;;;;;;;4.22;100.00;100293.19;5019437;28;20364;-64
2021/12/16 16:17:00;;;;;;;;;;;;;;;4.07;100.00;100297.78;5013222;28;19917;-68
2021/12/16 16:19:47;;;;;;;;;;;;;;;3.99;100.00;100285.81;5024057;28;19921;-67
2021/12/16 16:22:32;;;;;;;;;;;;;;;3.86;100.00;100291.22;5034637;28;19917;-67
2021/12/16 16:25:18;;;;;;;;;;;;;;;3.82;100.00;100277.44;5035667;28;19917;-70
2021/12/16 16:28:05;;;;;;;;;;;;;;;3.92;100.00;100272.09;5036199;28;19917;-69
2021/12/16 16:30:52;;;;;;;;;;;;;;;3.76;100.00;100268.88;5037067;28;20368;-69
2021/12/16 16:33:37;;;;;;;;;;;;;;;3.69;100.00;100271.59;5035533;28;19919;-69
2021/12/16 16:36:25;;;;;;;;;;;;;;;3.59;100.00;100253.63;5043088;28;20333;-70
2021/12/16 16:39:12;;;;;;;;;;;;;;;3.66;100.00;100243.13;5062701;28;19916;-71
2021/12/16 16:42:04;;;;;;;;;;;;;;;3.57;100.00;100245.88;5056631;28;19929;-70
2021/12/16 16:44:53;;;;;;;;;;;;;;;3.49;100.00;100242.53;5056784;28;19917;-68
2021/12/16 16:47:55;;;;;;;;;;;;;;;3.48;100.00;100239.09;5056504;28;20272;-69
2021/12/16 16:50:40;;;;;;;;;;;;;;;3.62;100.00;100233.69;5056809;28;19917;-67
2021/12/16 16:53:28;;;;;;;;;;;;;;;3.64;100.00;100237.09;5072637;28;20343;-71
2021/12/16 16:56:26;;;;;;;;;;;;;;;3.55;100.00;100229.47;5056241;28;19917;-73
2021/12/16 16:59:14;;;;;;;;;;;;;;;3.48;100.00;100239.09;5029985;28;19917;-69
2021/12/16 17:02:13;;;;;;;;;;;;;;;3.55;100.00;100234.66;5035551;28;19917;-71
2021/12/16 17:05:07;;;;;;;;;;;;;;;3.60;100.00;100242.38;5041843;28;19920;-71
2021/12/16 17:07:54;;;;;;;;;;;;;;;3.56;100.00;100241.56;5035462;28;19917;-70
2021/12/16 17:10:48;;;;;;;;;;;;;;;3.59;100.00;100240.66;5041223;28;19937;-70
2021/12/16 17:19:46;;;;;;;;;;;;;;;3.97;100.00;100235.69;5035065;28;19917;-64
2021/12/16 17:22:38;;;;;;;;;;;;;;;3.73;100.00;100237.84;5038098;28;19921;-68
2021/12/16 17:25:23;;;;;;;;;;;;;;;3.62;100.00;100227.66;5062713;28;19917;-67
2021/12/16 17:28:08;;;;;;;;;;;;;;;3.60;100.00;100230.28;5035661;28;19917;-65
2021/12/16 17:30:54;;;;;;;;;;;;;;;3.55;100.00;100232.06;5060932;28;19917;-66
2021/12/16 17:33:39;;;;;;;;;;;;;;;3.57;100.00;100251.88;5052983;28;19917;-71